x

Port Sanilac, Mi (pscm4) Weather Station

9:00pm - Fri 17th Apr 2015 All times are CDT. -5 hours from GMT.

  • Wind
    5mph, 7mph gusts
  • Air Temp 48°f
  • Sea Pressure 1015.9mb
  • Port Sanilac, Mi
  • Port Sanilac, Mi

More Historic Weather Station data

Upgrade to MSW Pro to gain access to the past 30 days of data for over 8000 Wavebouys and Weather Stations around the globe.

Join Pro

Comparision Forecast

View Surf forecast
   
Fri 04/17 9:00pm 5 7 mph 1015.9mb 48f
8:50pm 6 7 mph 1016.3mb 48f
8:40pm 7
mph
1015.9mb 48f
8:30pm 6 7 mph 1016.3mb 49f
8:20pm 6 7 mph 1015.9mb 51f
8:10pm 5 7 mph 1015.9mb 51f
8:00pm 5 8 mph 1015.9mb 49f
7:50pm 7 9 mph 1015.9mb 51f
7:40pm 6 8 mph 1015.9mb 49f
7:30pm 7 8 mph 1015.9mb 47f
7:20pm 6 7 mph 1015.9mb 46f
7:10pm 7 8 mph 1015.9mb 46f
7:00pm 6 7 mph 1015.9mb 47f
6:50pm 7
mph
1015.9mb 47f
6:40pm 8 9 mph 1015.9mb 47f
6:30pm 9
mph
1015.9mb 46f
6:20pm 7
mph
1015.9mb 47f
6:10pm 6 8 mph 1015.9mb 47f
6:00pm 8
mph
1015.9mb 46f
5:50pm 7 8 mph 1015.9mb 46f
5:40pm 7 9 mph 1016.3mb 45f
5:30pm 8
mph
1016.3mb 46f
5:20pm 7
mph
1016.3mb 47f
5:10pm 6 7 mph 1016.3mb 46f
5:00pm 6 7 mph 1016.3mb 46f
4:50pm 5 6 mph 1016.3mb 46f
4:40pm 6 7 mph 1016.3mb 46f
4:30pm 3 5 mph 1016.6mb 46f
4:20pm 5 7 mph 1016.3mb 46f
4:10pm 6 7 mph 1016.3mb 46f
4:00pm 5 6 mph 1016.6mb 46f
3:50pm 6 7 mph 1016.6mb 46f
3:40pm 6 8 mph 1016.6mb 45f
3:30pm 7 8 mph 1016.9mb 45f
3:20pm 7 8 mph 1016.9mb 46f
3:10pm 7 10 mph 1017.3mb 45f
3:00pm 9 10 mph 1017.3mb 45f
2:50pm 8 9 mph 1017.3mb 45f
2:40pm 8 9 mph 1017.3mb 45f
2:30pm 7 9 mph 1017.6mb 45f
2:20pm 8 10 mph 1017.3mb 44f
2:10pm 9 10 mph 1017.6mb 44f
2:00pm 6 7 mph 1017.6mb 44f
1:50pm 6 7 mph 1017.6mb 44f
1:40pm 6 7 mph 1017.9mb 44f
1:30pm 5 7 mph 1017.9mb 44f
1:20pm 6 7 mph 1017.9mb 44f
1:10pm 6
mph
1017.9mb 44f
1:00pm 6 7 mph 1018.3mb 44f
12:50pm 3 5 mph 1018.3mb 44f
12:40pm 5
mph
1018.6mb 44f
12:30pm 2
mph
1018.6mb 44f
12:20pm 2 3 mph 1018.6mb 44f
12:10pm 2 3 mph 1018.6mb 44f
12:00pm 2 3 mph 1019mb 44f
11:50am 2 3 mph 1019mb 44f
11:40am 2 5 mph 1019mb 44f
11:30am 3 5 mph 1019mb 46f
11:20am 3 6 mph 1019.3mb 48f
11:10am 3 7 mph 1019.3mb 47f
11:00am 5 7 mph 1019.3mb 49f
10:50am 6 7 mph 1019.3mb 50f
10:40am 5
mph
1019.3mb 52f
10:30am 5
mph
1019.3mb 52f
10:20am 5
mph
1019.3mb 51f
10:10am 5 7 mph 1019.3mb 47f
10:00am 7 8 mph 1019.3mb 47f
9:50am 8
mph
1019.3mb 47f
9:40am 6
mph
1019mb 47f
9:30am 6 8 mph 1018.6mb 48f
9:20am 8
mph
1018.6mb 50f
9:10am 8 10 mph 1018.3mb 51f
9:00am 9 10 mph 1018.3mb 50f
8:50am 6 7 mph 1018.3mb 53f
8:40am 3 5 mph 1018.3mb 53f
8:30am 2 6 mph 1017.9mb 53f
8:20am 3 5 mph 1017.9mb 53f
8:10am 3 5 mph 1017.9mb 53f
8:00am 2 7 mph 1017.9mb 51f
7:50am 6 8 mph 1017.9mb 51f
7:40am 3 7 mph 1017.9mb 51f
7:30am 6 8 mph 1018.3mb 50f
7:20am 7 8 mph 1018.3mb 49f
7:10am 6 8 mph 1018.3mb 49f
7:00am 6 9 mph 1018.3mb 48f
6:50am 6 8 mph 1018.3mb 48f
6:40am 5 7 mph 1017.9mb 48f
6:30am 5 8 mph 1017.9mb 48f
6:20am 5 9 mph 1017.6mb 48f
6:10am 7 11 mph 1017.6mb 49f
6:00am 8 13 mph 1017.6mb 49f
5:50am 8 11 mph 1017.3mb 49f
5:40am 7 10 mph 1016.9mb 50f
5:30am 7 9 mph 1016.9mb 50f
5:20am 6 10 mph 1016.9mb 51f
5:10am 7 11 mph 1016.6mb 51f
5:00am 8 11 mph 1016.3mb 51f
4:50am 7 13 mph 1016.3mb 51f
4:40am 7 9 mph 1016.3mb 51f
4:30am 6 8 mph 1016.3mb 51f
4:20am 6 8 mph 1016.3mb 51f
4:10am 5 8 mph 1016.3mb 51f
4:00am 6 9 mph 1016.3mb 52f
3:50am 5 9 mph 1015.9mb 52f
3:40am 6 9 mph 1016.3mb 53f
3:30am 6 11 mph 1015.9mb 53f
3:20am 6 9 mph 1016.3mb 53f
3:10am 7 10 mph 1015.9mb 53f
3:00am 7 10 mph 1016.3mb 53f
2:50am 7 10 mph 1016.3mb 53f
2:40am 8 10 mph 1016.3mb 53f
2:30am 8 11 mph 1016.3mb 53f
2:20am 7 11 mph 1016.3mb 53f
2:10am 5 9 mph 1016.3mb 53f
2:00am 6 8 mph 1016.6mb 52f
1:50am 6 8 mph 1016.3mb 52f
1:40am 5 6 mph 1016.6mb 52f
1:30am 3 7 mph 1016.6mb 52f
1:20am 3 7 mph 1016.6mb 52f
1:10am 5 7 mph 1016.9mb 52f
1:00am 5 7 mph 1016.9mb 52f
12:50am 3 8 mph 1016.6mb 52f
12:40am 5 8 mph 1016.6mb 52f
12:30am 6 7 mph 1016.6mb 52f
12:20am 5 7 mph 1016.6mb 52f
12:10am 6 8 mph 1016.6mb 52f
12:00am 5 9 mph 1016.6mb 51f
Thu 04/16 11:50pm 6 8 mph 1016.6mb 51f
11:40pm 6 8 mph 1016.6mb 46f
11:30pm 8 10 mph 1016.9mb 44f
11:20pm 9 10 mph 1016.9mb 44f
11:10pm 9
mph
1016.9mb 44f
11:00pm 7
mph
1017.3mb 44f
10:50pm 6 7 mph 1017.3mb 44f
10:40pm 5
mph
1017.6mb 44f
10:30pm 3 5 mph 1017.6mb 44f
10:20pm 5 7 mph 1017.6mb 44f
10:10pm 7 9 mph 1017.6mb 45f
10:00pm 9 10 mph 1017.6mb 45f
9:50pm 10 11 mph 1017.6mb 45f
9:40pm 9 11 mph 1017.6mb 45f
9:30pm 10 11 mph 1017.6mb 44f
9:20pm 10 13 mph 1017.9mb 44f
9:10pm 10 14 mph 1017.9mb 43f
9:00pm 13 14 mph 1017.9mb 43f
8:50pm 10 11 mph 1017.9mb 44f
8:40pm 10 13 mph 1017.9mb 44f
8:30pm 11 13 mph 1017.9mb 44f
8:20pm 10 13 mph 1017.9mb 44f
8:10pm 11 14 mph 1017.6mb 44f
8:00pm 14 17 mph 1017.9mb 45f
7:50pm 15 16 mph 1017.9mb 45f
7:40pm 13 16 mph 1017.9mb 44f
7:30pm 14 16 mph 1017.9mb 44f
7:20pm 14 16 mph 1017.9mb 44f
7:10pm 16 17 mph 1017.9mb 45f
7:00pm 15 17 mph 1017.6mb 46f
6:50pm 15 17 mph 1017.6mb 45f
6:40pm 14 16 mph 1017.6mb 44f
6:30pm 14 16 mph 1017.6mb 44f
6:20pm 14 15 mph 1017.6mb 44f
6:10pm 10 13 mph 1017.9mb 44f
6:00pm 11 14 mph 1017.9mb 44f
5:50pm 10 14 mph 1017.9mb 44f
5:40pm 10 14 mph 1018.3mb 44f
5:30pm 11 20 mph 1018.3mb 44f
5:20pm 14 17 mph 1018.3mb 45f
5:10pm 11 13 mph 1018.3mb 44f
5:00pm 11 14 mph 1018.3mb 44f
4:50pm 10 15 mph 1018.6mb 43f
4:40pm 15 18 mph 1018.6mb 43f
4:30pm 16 18 mph 1018.6mb 44f
4:20pm 17 20 mph 1018.6mb 44f
4:10pm 18 22 mph 1018.6mb 45f
4:00pm 20 22 mph 1018.6mb 45f
3:50pm 18 22 mph 1018.6mb 45f
3:40pm 20 23 mph 1019mb 46f
3:30pm 22 23 mph 1018.6mb 46f
3:20pm 21 23 mph 1019mb 46f
3:10pm 18 22 mph 1019mb 46f
3:00pm 13 15 mph 1019mb 46f
2:50pm 15 17 mph 1019mb 48f
2:40pm 7 8 mph 1019.3mb 44f
2:30pm 7 8 mph 1019.3mb 44f
2:20pm 6 7 mph 1019.3mb 44f
2:10pm 3 5 mph 1019.3mb 44f
2:00pm 3 6 mph 1019.6mb 44f
1:50pm 2 3 mph 1020mb 45f
1:40pm 2 3 mph 1020mb 44f
1:30pm  -  3 mph 1020mb 44f
1:20pm 2 3 mph 1020.3mb 44f
1:10pm 3
mph
1020.3mb 45f
1:00pm 2 3 mph 1020.7mb 46f
12:50pm 1 2 mph 1020.7mb 47f
12:40pm  -  3 mph 1021mb 48f
12:30pm 3 5 mph 1021mb 46f
12:20pm 5 6 mph 1021mb 46f
12:10pm 6 7 mph 1021.3mb 44f
12:00pm 6 7 mph 1021.3mb 45f
11:50am 5
mph
1021.3mb 43f
11:40am 5
mph
1021.7mb 43f
11:30am 3 5 mph 1021.7mb 44f
11:20am 2 3 mph 1022mb 44f
11:10am 2 3 mph 1022.4mb 43f
11:00am 3
mph
1022.4mb 44f
10:50am 1 3 mph 1022.4mb 44f
10:40am 2
mph
1022.4mb 43f
10:30am 2 3 mph 1022.7mb 43f
10:20am 2 3 mph 1023mb 42f
10:10am 2 3 mph 1023mb 42f
10:00am 3
mph
1023.4mb 41f
9:50am 3 5 mph 1023.4mb 40f
9:40am 5
mph
1023mb 40f
9:30am 3
mph
1023.4mb 41f
9:20am 3
mph
1023.4mb 41f
9:10am 2
mph
1023.4mb 43f
9:00am 1 3 mph 1023.4mb 44f
8:50am 2 3 mph 1023.7mb 43f
8:40am 3 5 mph 1023.7mb 43f
8:30am 2 3 mph 1023.7mb 45f
8:20am 2 3 mph 1023.7mb 44f
8:10am 3
mph
1023.7mb 43f
8:00am 3
mph
1023.7mb 43f
7:50am 1 2 mph 1024mb 42f
7:40am 1 2 mph 1024mb 41f
7:30am 1 2 mph 1024mb 40f
7:20am 2 3 mph 1024mb 40f
7:10am 2
mph
1024.4mb 39f
7:00am 2 3 mph 1024.4mb 39f
6:50am 2
mph
1024.4mb 38f
6:40am 1 3 mph 1024.4mb 37f
6:30am 2
mph
1024.4mb 37f
6:20am  -  1 mph 1024.4mb 37f
6:10am  -  2 mph 1024.4mb 37f
6:00am 2
mph
1024.4mb 37f
5:50am 1 2 mph 1024.4mb 37f
5:40am 1 2 mph 1024.4mb 37f
5:30am 1 2 mph 1024.7mb 37f
5:20am  -  1 mph 1024.7mb 38f
5:10am  -  1 mph 1024.7mb 38f
5:00am  -  1 mph 1024.7mb 38f
4:50am  -  2 mph 1025.1mb 38f
4:40am 1 2 mph 1025.1mb 39f
4:30am  -  2 mph 1025.1mb 39f
4:20am 1 2 mph 1025.1mb 39f
4:10am 2 5 mph 1025.4mb 39f
4:00am 1 3 mph 1025.4mb 39f
3:50am 2 3 mph 1025.7mb 40f
3:40am 2 3 mph 1025.7mb 40f
3:30am 1 3 mph 1025.7mb 39f
3:20am  -  1 mph 1025.7mb 37f
3:10am  -  1 mph 1025.7mb 37f
3:00am  -  2 mph 1025.7mb 37f
2:50am  -  1 mph 1025.7mb 37f
2:40am  -  2 mph 1025.7mb 38f
2:30am 1 2 mph 1026.1mb 37f
2:20am 1 2 mph 1026.1mb 38f
2:10am  -  2 mph 1026.4mb 37f
2:00am 2 3 mph 1026.4mb 37f
1:50am  -  mph 1026.4mb 37f
1:40am  -  3 mph 1026.4mb 37f
1:30am 2 3 mph 1026.8mb 37f
1:20am 3
mph
1026.8mb 37f
1:10am  -  2 mph 1027.1mb 37f
1:00am  -  2 mph 1027.1mb 37f
12:50am 1 2 mph 1027.1mb 37f
12:40am  -  2 mph 1027.4mb 37f
12:30am 1 2 mph 1027.4mb 38f
12:20am  -  1 mph 1027.4mb 38f
12:10am  -  2 mph 1027.4mb 40f
12:00am 2
mph
1027.4mb 40f
Wed 04/15 11:50pm 1 2 mph 1027.4mb 40f
11:40pm  -  3 mph 1027.8mb 40f
11:30pm 2 5 mph 1027.8mb 40f
11:20pm 3 5 mph 1027.8mb 40f
11:10pm 3
mph
1028.1mb 40f
11:00pm 2 3 mph 1027.8mb 41f
10:50pm 2 6 mph 1027.8mb 41f
10:40pm 6 8 mph 1027.4mb 41f
10:30pm 7 10 mph 1027.8mb 40f
10:20pm 6 13 mph 1028.1mb 40f
10:10pm 10 13 mph 1027.8mb 41f
10:00pm 11 14 mph 1027.8mb 41f
9:50pm 11 17 mph 1028.1mb 40f
9:40pm 13 17 mph 1027.8mb 41f
9:30pm 11 15 mph 1027.8mb 40f
9:20pm 10 17 mph 1027.8mb 40f
9:10pm 13 15 mph 1027.8mb 41f
9:00pm 13 15 mph 1027.8mb 41f
8:50pm 14 18 mph 1028.1mb 42f
8:40pm 14 21 mph 1028.1mb 42f
8:30pm 15 18 mph 1027.8mb 42f
8:20pm 15 18 mph 1027.8mb 42f
8:10pm 16 18 mph 1028.1mb 43f
8:00pm 15 20 mph 1028.1mb 43f
7:50pm 15 17 mph 1027.8mb 43f
7:40pm 15 17 mph 1028.1mb 43f
7:30pm 14 18 mph 1028.1mb 43f
7:20pm 16 18 mph 1028.1mb 43f
7:10pm 14 16 mph 1028.1mb 43f
7:00pm 14 16 mph 1028.1mb 43f
6:50pm 14 16 mph 1028.1mb 42f
6:40pm 14 16 mph 1027.8mb 42f
6:30pm 14 15 mph 1027.8mb 42f
6:20pm 13 15 mph 1027.8mb 41f
6:10pm 14 16 mph 1028.1mb 41f
6:00pm 14 15 mph 1027.8mb 42f
5:50pm 13 14 mph 1028.1mb 42f
5:40pm 13 14 mph 1028.1mb 41f
5:30pm 11 14 mph 1028.1mb 42f
5:20pm 11 14 mph 1028.1mb 41f
5:10pm 13 15 mph 1028.1mb 41f
5:00pm 11 16 mph 1028.4mb 42f
4:50pm 11 14 mph 1028.4mb 41f
4:40pm 13 15 mph 1028.4mb 41f
4:30pm 11 15 mph 1028.8mb 41f
4:20pm 13 15 mph 1028.8mb 41f
4:10pm 13 17 mph 1028.8mb 41f
4:00pm 14 16 mph 1028.4mb 41f
3:50pm 13 15 mph 1028.8mb 41f
3:40pm 14 16 mph 1028.8mb 42f
3:30pm 14 15 mph 1029.1mb 42f
3:20pm 14 15 mph 1029.1mb 42f
3:10pm 13 15 mph 1029.5mb 41f
3:00pm 13 16 mph 1029.5mb 41f
2:50pm 13 15 mph 1029.1mb 41f
2:40pm 14 16 mph 1029.5mb 40f
2:30pm 14 15 mph 1029.5mb 41f
2:20pm 14
mph
1029.5mb 41f
2:10pm 13 14 mph 1029.5mb 40f
2:00pm 13 15 mph 1029.5mb 40f
1:50pm 13 14 mph 1029.5mb 40f
1:40pm 13 14 mph 1029.8mb 40f
1:30pm 13 15 mph 1029.8mb 40f
1:20pm 13 14 mph 1029.8mb 40f
1:10pm 11 13 mph 1029.8mb 41f
1:00pm 11
mph
1030.1mb 40f
12:50pm 10 11 mph 1030.1mb 40f
12:40pm 10 11 mph 1030.1mb 40f
12:30pm 10 13 mph 1030.1mb 40f
12:20pm 10 13 mph 1030.1mb 40f
12:10pm 11 14 mph 1030.1mb 40f
12:00pm 11 14 mph 1030.1mb 40f
11:50am 11 13 mph 1030.1mb 40f
11:40am 11 14 mph 1030.1mb 40f
11:30am 11 13 mph 1030.1mb 40f
11:20am 10 11 mph 1030.1mb 40f
11:10am 10 11 mph 1030.1mb 40f
11:00am 10 11 mph 1030.1mb 40f
10:50am 10 11 mph 1030.1mb 41f
10:40am 10 11 mph 1029.8mb 41f
10:30am 11
mph
1029.8mb 41f
10:20am 9 11 mph 1029.8mb 41f
10:10am 10 11 mph 1029.8mb 41f
10:00am 9 11 mph 1029.8mb 41f
9:50am 10 11 mph 1029.5mb 41f
9:40am 10 11 mph 1029.5mb 41f
9:30am 10 13 mph 1029.5mb 41f
9:20am 11 13 mph 1029.5mb 41f
9:10am 11 13 mph 1029.1mb 41f
9:00am 9 10 mph 1029.5mb 42f
8:50am 8 10 mph 1029.1mb 42f
8:40am 8 9 mph 1029.1mb 43f
8:30am 7 8 mph 1028.8mb 43f
8:20am 7 8 mph 1028.8mb 43f
8:10am 7
mph
1028.8mb 44f
8:00am 7 8 mph 1028.8mb 44f
7:50am 7 8 mph 1028.8mb 44f
7:40am 6 7 mph 1028.4mb 44f
7:30am 3 5 mph 1028.4mb 44f
7:20am 3 5 mph 1028.4mb 43f
7:10am 2 3 mph 1028.1mb 42f
7:00am 2 3 mph 1028.1mb 41f
6:50am 1 2 mph 1028.1mb 40f
6:30am 2
mph
1027.8mb 38f
6:20am 1 2 mph 1027.8mb 39f
6:10am 1 3 mph 1027.8mb 40f
6:00am 3 6 mph 1027.4mb 39f
5:50am 5 7 mph 1027.4mb 39f
5:40am 5 7 mph 1027.1mb 40f
5:30am 7
mph
1027.1mb 41f
5:20am 6 7 mph 1027.1mb 40f
5:10am 5 7 mph 1026.8mb 40f
5:00am 7 8 mph 1026.8mb 41f
4:50am 7 8 mph 1026.8mb 41f
4:40am 5 6 mph 1026.4mb 42f
4:30am 3 7 mph 1026.4mb 42f
4:20am 6 8 mph 1026.4mb 42f
4:10am 7 9 mph 1026.4mb 42f
4:00am 6 8 mph 1026.4mb 42f
3:50am 7 8 mph 1026.4mb 43f
3:40am 6 8 mph 1026.1mb 42f
3:30am 7 10 mph 1026.1mb 42f
3:20am 8 13 mph 1026.1mb 43f
3:10am 10 13 mph 1026.1mb 44f
3:00am 7 13 mph 1026.1mb 43f
2:50am 7 11 mph 1026.1mb 43f
2:40am 7 10 mph 1026.1mb 44f
2:30am 7 8 mph 1026.1mb 43f
2:20am 6 7 mph 1026.1mb 42f
2:10am 6 9 mph 1026.1mb 42f
2:00am 5 6 mph 1026.1mb 42f
1:50am 3 7 mph 1026.1mb 42f
1:40am 5 6 mph 1026.1mb 42f
1:30am 5 8 mph 1026.1mb 42f
1:20am 7 8 mph 1025.7mb 42f
1:10am 7 9 mph 1025.7mb 42f
1:00am 7
mph
1025.7mb 42f
12:50am 7 8 mph 1025.7mb 42f
12:40am 6 7 mph 1025.4mb 44f
12:30am 5 7 mph 1025.4mb 43f
12:20am 6 7 mph 1025.4mb 43f
12:10am 6 7 mph 1025.4mb 43f
12:00am 5 7 mph 1025.4mb 42f
Tue 04/14 11:50pm 7 8 mph 1025.1mb 43f
11:40pm 6 8 mph 1025.4mb 43f
11:30pm 7 9 mph 1025.4mb 44f
11:20pm 8 10 mph 1025.1mb 44f
11:10pm 9 11 mph 1025.1mb 43f
11:00pm 11 13 mph 1025.1mb 43f
10:50pm 9 11 mph 1025.1mb 43f
10:40pm 6 13 mph 1025.1mb 42f
10:30pm 11 16 mph 1025.1mb 42f
10:20pm 14 18 mph 1024.7mb 42f
10:10pm 16 21 mph 1024.7mb 42f
10:00pm 13 15 mph 1024.4mb 44f
9:50pm 2 3 mph 1024mb 48f
9:40pm 3 7 mph 1024mb 48f
9:30pm 6 7 mph 1023.7mb 48f
9:20pm 6 7 mph 1023.7mb 48f
9:10pm 3 6 mph 1024mb 49f
9:00pm 5 6 mph 1023.7mb 49f
8:50pm 3 7 mph 1023.7mb 48f
8:40pm 5 6 mph 1023.7mb 48f
8:30pm 6 10 mph 1024mb 49f
8:20pm 9 11 mph 1023.7mb 50f
8:10pm 8 10 mph 1023.7mb 49f
8:00pm 6 8 mph 1023.4mb 49f
7:50pm 6 7 mph 1023.4mb 50f
7:40pm 6 7 mph 1023.4mb 49f
7:30pm 6 7 mph 1023.4mb 49f
7:20pm 5 7 mph 1023.4mb 49f
7:10pm 6 8 mph 1023mb 48f
7:00pm 6 7 mph 1022.7mb 47f
6:50pm 6 8 mph 1022.7mb 46f
6:40pm 6 7 mph 1022.7mb 46f
6:30pm 6 7 mph 1022.7mb 46f
6:20pm 6 8 mph 1022.7mb 45f
6:10pm 5 6 mph 1022.7mb 45f
6:00pm 5 6 mph 1022.7mb 44f
5:50pm 5 6 mph 1022.7mb 45f
5:40pm 5
mph
1022.7mb 45f
5:30pm 2 3 mph 1022.7mb 45f
5:20pm 2 3 mph 1022.7mb 46f
5:10pm  -  1 mph 1022.7mb 49f
5:00pm  -  1 mph 1022.7mb 48f
4:50pm  -  1 mph 1022.7mb 50f
4:40pm  -  1 mph 1022.7mb 48f
4:30pm  -  3 mph 1022.7mb 46f
4:20pm 2 3 mph 1022.7mb 46f
4:10pm  -  5 mph 1023mb 48f
4:00pm 3
mph
1023mb 47f
3:50pm 2 3 mph 1022.7mb 47f
3:40pm 3 5 mph 1023mb 45f
3:30pm 3 5 mph 1023mb 45f
3:20pm 2 3 mph 1023mb 46f
3:10pm  -  3 mph 1023mb 49f
3:00pm 2 7 mph 1023.4mb 49f
2:50pm 5 7 mph 1023.4mb 46f
2:40pm 3 6 mph 1023.4mb 45f
2:30pm 2 6 mph 1023.4mb 45f
2:20pm 5 8 mph 1023.7mb 44f
2:10pm 6 7 mph 1023.7mb 44f
2:00pm 6 8 mph 1023.7mb 44f
1:50pm 7 8 mph 1024mb 43f
1:40pm 6 7 mph 1024mb 44f
1:30pm 5 6 mph 1024mb 45f
1:20pm 6 8 mph 1024mb 44f
1:10pm 6 8 mph 1024.4mb 44f
1:00pm 6 7 mph 1024.4mb 44f
12:50pm 5 6 mph 1024.4mb 45f
12:40pm 7 8 mph 1024.7mb 44f
12:30pm 6 7 mph 1024.7mb 44f
12:20pm 5 7 mph 1024.7mb 42f
12:10pm 1 7 mph 1024.7mb 44f
12:00pm 7 8 mph 1024.7mb 42f
11:50am 6 10 mph 1024.7mb 44f
11:40am 8 10 mph 1024.7mb 49f
11:30am 8
mph
1024.7mb 50f
11:20am 8
mph
1024.7mb 50f
11:10am 2 3 mph 1025.1mb 48f
11:00am 3 5 mph 1025.1mb 46f
10:50am 3 5 mph 1025.1mb 46f
10:40am 5 6 mph 1025.1mb 50f
10:30am 5 6 mph 1025.1mb 50f
10:20am 5 6 mph 1025.1mb 49f
10:10am 6
mph
1025.1mb 53f
10:00am 5
mph
1025.1mb 55f
9:50am 5
mph
1025.1mb 56f
9:40am 5
mph
1025.1mb 54f
9:30am 5
mph
1024.7mb 53f
9:20am 2 5 mph 1024.7mb 56f
9:10am 5 6 mph 1024.7mb 53f
9:00am 6 7 mph 1024.4mb 53f
8:50am 6 7 mph 1024.4mb 53f
8:40am 6 7 mph 1024.4mb 53f
8:30am 3 5 mph 1024mb 54f
8:20am 2 3 mph 1024mb 53f
8:10am 3 6 mph 1024mb 52f
8:00am 5 7 mph 1024mb 51f
7:50am 5 8 mph 1024mb 50f
7:40am 3 8 mph 1024mb 49f
7:30am 6 10 mph 1024mb 48f
7:20am 7 10 mph 1024mb 48f
7:10am 6 10 mph 1023.7mb 47f
7:00am 8 10 mph 1023.7mb 46f
6:50am 7 9 mph 1023.7mb 45f
6:40am 6 9 mph 1023.4mb 45f
6:30am 8 11 mph 1023.4mb 44f
6:20am 8 10 mph 1023mb 44f
6:10am 7 9 mph 1023mb 44f
6:00am 7 10 mph 1022.7mb 44f
5:50am 5 9 mph 1022.7mb 44f
5:40am 8 13 mph 1022.4mb 44f
5:30am 10 13 mph 1022.4mb 44f
5:20am 9 13 mph 1022.4mb 44f
5:10am 9 13 mph 1022mb 44f
5:00am 9 11 mph 1022mb 44f
4:50am 8 11 mph 1022mb 44f
4:40am 8 11 mph 1021.7mb 44f
4:30am 8 11 mph 1021.7mb 44f
4:20am 6 8 mph 1021.7mb 43f
4:10am 7 10 mph 1021.7mb 44f
4:00am 6 9 mph 1021.7mb 44f
3:50am 8 9 mph 1021.3mb 45f
3:40am 7 10 mph 1021.3mb 45f
3:30am 7 9 mph 1021mb 45f